Amendola Airport LIBA

Flugplatz Daten

Name: Amendola Airport

Ident: LIBA

Lat: 41,54140091

Long: 15,71809959

Platzhöhe: 183 ft

IataCode:

City: Foggia

Metar

2021/08/05 13:55
LIBA 051355Z 23017KT 9999 FEW040 31/14 Q1007 RMK BKN SCT130 BKN220 VIS MIN 9999 WIND THR11 23023KT WIND THR29 /////KT BLU

Taf

2021/04/13 18:36
TAF TAF LIBA 131700Z 1318/1406 29012KT 9999 SCT030 SCT060
TEMPO 1318/1320 29012G22KT 7000 RA FEW025CB BKN030
Gewünschte Webcam nicht vorhanden? Dann fügen Sie eine hinzu. Sie wird dann so schnell wie möglich freigeschaltet
Url: Title: